This is the latest recevied weather packets stored in our database for station/object K5UBE. If no packets are shown the sender has not sent any weather packets the latest 10 day(s).
| Time | Temp. | Humidity | Pressure | Rain* | Wind** | Luminosity | Snow |
|---|---|---|---|---|---|---|---|
| 1777672552 | 8.89° C | 82% | 1022.5 hPa | 0 mm | - | - | - |
| 1777672247 | 9.44° C | 83% | 1022.6 hPa | 0 mm | - | - | - |
| 1777671943 | 9.44° C | 83% | 1022.5 hPa | 0 mm | - | - | - |
| 1777671638 | 8.89° C | 83% | 1022.4 hPa | 0 mm | - | - | - |
| 1777671336 | 8.89° C | 83% | 1022.6 hPa | 0 mm | - | - | - |
| 1777671031 | 8.89° C | 84% | 1022.6 hPa | 0 mm | - | - | - |
| 1777670728 | 8.89° C | 85% | 1022.7 hPa | 0 mm | - | - | - |
| 1777670425 | 8.89° C | 86% | 1022.6 hPa | 0 mm | - | - | - |
| 1777670122 | 8.89° C | 87% | 1022.5 hPa | 0 mm | - | - | - |
| 1777669820 | 8.89° C | 88% | 1022.6 hPa | 0 mm | - | - | - |
| 1777669516 | 8.33° C | 88% | 1022.7 hPa | 0 mm | - | - | - |
| 1777669213 | 8.33° C | 89% | 1022.6 hPa | 0 mm | - | - | - |
| 1777668909 | 8.33° C | 89% | 1022.8 hPa | 1.27 mm | - | - | - |
| 1777668608 | 8.33° C | 89% | 1022.6 hPa | 0 mm | - | - | - |
| 1777668303 | 8.33° C | 88% | 1023.1 hPa | 0 mm | - | - | - |
| 1777667999 | 8.89° C | 88% | 1022.7 hPa | 0 mm | - | - | - |
| 1777667696 | 8.89° C | 87% | 1022.7 hPa | 0 mm | - | - | - |
| 1777667394 | 8.89° C | 84% | 1023 hPa | 0 mm | - | - | - |
| 1777667090 | 9.44° C | 81% | 1022.8 hPa | 0 mm | - | - | - |
| 1777666787 | 10° C | 76% | 1022.8 hPa | 0 mm | - | - | - |
| 1777666484 | 11.11° C | 59% | 1022.6 hPa | 0 mm | - | - | - |
| 1777666181 | 11.11° C | 60% | 1022.6 hPa | 0 mm | - | - | - |
| 1777665878 | 11.11° C | 60% | 1022.6 hPa | 0 mm | - | - | - |
| 1777665575 | 11.11° C | 59% | 1022.4 hPa | 0 mm | - | - | - |
| 1777665272 | 11.11° C | 58% | 1022.5 hPa | 0 mm | - | - | - |
* Rain latest hour (hover to see other rain measurements)
** Current wind speed in m/s (hover to see current wind gust speed)